createdAt,value
2022-10-14T00:01:42.172Z,117.40
2022-10-14T00:04:08.786Z,104.33
2022-10-14T00:06:35.319Z,70.20
2022-10-14T00:09:05.487Z,129.10
2022-10-14T00:11:32.874Z,107.33
2022-10-14T00:14:02.209Z,85.93
2022-10-14T00:16:31.294Z,153.67
2022-10-14T00:18:58.375Z,146.60
2022-10-14T00:21:25.256Z,98.47
2022-10-14T00:23:51.682Z,123.53
2022-10-14T00:26:29.238Z,116.57
2022-10-14T00:28:57.167Z,76.47
2022-10-14T00:31:24.405Z,105.37
2022-10-14T00:33:50.913Z,66.90
2022-10-14T00:36:20.121Z,76.67
2022-10-14T00:38:47.056Z,72.63
2022-10-14T00:41:19.765Z,71.73
2022-10-14T00:43:55.704Z,99.90
2022-10-14T00:46:23.530Z,107.17
2022-10-14T00:48:50.213Z,74.17
2022-10-14T00:51:17.306Z,64.80
2022-10-14T00:53:44.334Z,71.13
2022-10-14T00:56:11.669Z,88.23
2022-10-14T00:58:38.686Z,67.67
2022-10-14T01:01:05.353Z,66.80
2022-10-14T01:03:33.217Z,92.53
2022-10-14T01:06:15.246Z,74.53
2022-10-14T01:08:53.260Z,69.33
2022-10-14T01:12:09.764Z,64.20
2022-10-14T01:14:59.887Z,78.83
2022-10-14T01:17:33.268Z,67.40
2022-10-14T01:20:40.112Z,83.57
2022-10-14T01:23:19.046Z,86.47
2022-10-14T01:26:02.241Z,88.47
2022-10-14T01:28:51.199Z,113.20
2022-10-14T01:31:24.317Z,110.77
2022-10-14T01:33:53.771Z,97.73
2022-10-14T01:36:33.988Z,71.63
2022-10-14T01:39:05.936Z,106.43
2022-10-14T01:41:38.857Z,76.67
2022-10-14T01:44:10.644Z,88.53
2022-10-14T01:46:38.990Z,166.43
2022-10-14T01:49:10.548Z,88.83
2022-10-14T01:51:41.624Z,122.77
2022-10-14T01:54:15.425Z,114.83
2022-10-14T01:56:43.128Z,114.90
2022-10-14T01:59:10.810Z,107.90
2022-10-14T02:01:37.408Z,90.07
2022-10-14T02:04:14.448Z,128.53
2022-10-14T02:06:43.740Z,117.83
2022-10-14T02:09:30.812Z,194.27
2022-10-14T02:12:15.812Z,337.57
2022-10-14T02:15:11.036Z,108.07
2022-10-14T02:17:46.173Z,106.13
2022-10-14T02:20:27.753Z,127.33
2022-10-14T02:23:21.424Z,130.73
2022-10-14T02:25:49.411Z,146.47
2022-10-14T02:28:19.577Z,181.27
2022-10-14T02:30:52.238Z,165.97
2022-10-14T02:33:21.073Z,141.17
2022-10-14T02:35:49.159Z,140.17
2022-10-14T02:38:16.209Z,220.87
2022-10-14T02:40:46.000Z,118.07
2022-10-14T02:43:12.850Z,301.50
2022-10-14T02:45:40.506Z,118.50
2022-10-14T02:48:07.581Z,187.53
2022-10-14T02:50:34.127Z,182.50
2022-10-14T02:53:00.612Z,263.10
2022-10-14T02:55:27.089Z,205.83
2022-10-14T02:57:53.586Z,110.50
2022-10-14T03:00:20.982Z,98.27
2022-10-14T03:02:47.437Z,101.57
2022-10-14T03:05:13.949Z,214.40
2022-10-14T03:07:40.509Z,134.63
2022-10-14T03:10:07.189Z,98.97
2022-10-14T03:12:33.650Z,114.40
2022-10-14T03:15:00.097Z,104.47
2022-10-14T03:17:26.774Z,116.23
2022-10-14T03:19:53.206Z,93.00
2022-10-14T03:22:20.152Z,233.97
2022-10-14T03:24:46.828Z,118.37
2022-10-14T03:27:13.273Z,119.80
2022-10-14T03:29:40.766Z,119.97
2022-10-14T03:32:07.235Z,80.47
2022-10-14T03:34:33.668Z,85.73
2022-10-14T03:37:00.126Z,111.53
2022-10-14T03:39:26.588Z,84.97
2022-10-14T03:41:53.045Z,71.13
2022-10-14T03:44:19.524Z,105.67
2022-10-14T03:46:46.044Z,102.10
2022-10-14T03:49:12.998Z,73.17
2022-10-14T03:51:39.514Z,83.60
2022-10-14T03:54:06.311Z,82.67
2022-10-14T03:56:32.781Z,62.23
2022-10-14T03:58:59.227Z,74.17
2022-10-14T04:01:25.809Z,70.27
2022-10-14T04:03:52.321Z,73.37
2022-10-14T04:06:18.789Z,49.20
2022-10-14T04:08:45.261Z,62.10
2022-10-14T04:11:11.762Z,93.20
2022-10-14T04:13:38.214Z,71.63
2022-10-14T04:16:09.094Z,88.53
2022-10-14T04:18:36.150Z,69.63
2022-10-14T04:21:05.084Z,70.20
2022-10-14T04:23:32.106Z,78.93
2022-10-14T04:25:58.699Z,77.23
2022-10-14T04:28:25.225Z,82.53
2022-10-14T04:30:51.718Z,79.27
2022-10-14T04:33:18.157Z,112.60
2022-10-14T04:35:44.609Z,141.60
2022-10-14T04:38:11.088Z,147.67
2022-10-14T04:40:37.517Z,71.73
2022-10-14T04:43:04.036Z,76.17
2022-10-14T04:45:30.490Z,107.67
2022-10-14T04:47:56.954Z,113.40
2022-10-14T04:50:23.524Z,96.43
2022-10-14T04:52:49.982Z,53.23
2022-10-14T04:55:16.448Z,68.73
2022-10-14T04:57:43.953Z,73.20
2022-10-14T05:00:13.792Z,63.30
2022-10-14T05:02:40.277Z,68.27
2022-10-14T05:05:07.329Z,63.03
2022-10-14T05:07:34.532Z,82.13
2022-10-14T05:10:01.557Z,93.37
2022-10-14T05:12:28.461Z,118.53
2022-10-14T05:14:55.123Z,66.50
2022-10-14T05:17:21.798Z,66.27
2022-10-14T05:19:48.564Z,70.30
2022-10-14T05:22:15.221Z,67.87
2022-10-14T05:24:41.901Z,63.60
2022-10-14T05:27:08.376Z,65.53
2022-10-14T05:29:34.821Z,71.67
2022-10-14T05:32:01.389Z,67.00
2022-10-14T05:34:27.826Z,75.73
2022-10-14T05:36:54.316Z,66.37
2022-10-14T05:39:20.785Z,58.67
2022-10-14T05:41:47.247Z,77.00
2022-10-14T05:44:13.673Z,69.43
2022-10-14T05:46:40.122Z,70.13
2022-10-14T05:49:06.653Z,66.87
2022-10-14T05:51:33.497Z,61.50
2022-10-14T05:54:00.288Z,67.40
2022-10-14T05:56:26.880Z,66.13
2022-10-14T05:58:53.429Z,73.53
2022-10-14T06:01:19.878Z,88.93
2022-10-14T06:03:50.095Z,65.13
2022-10-14T06:06:16.833Z,61.33
2022-10-14T06:08:43.784Z,72.37
2022-10-14T06:11:10.689Z,90.67
2022-10-14T06:13:37.601Z,73.93
2022-10-14T06:16:05.680Z,106.47
2022-10-14T06:18:33.051Z,106.30
2022-10-14T06:21:00.091Z,71.33
2022-10-14T06:23:27.079Z,114.77
2022-10-14T06:25:53.915Z,125.13
2022-10-14T06:28:20.470Z,103.73
2022-10-14T06:30:54.280Z,110.80
2022-10-14T06:33:21.449Z,149.33
2022-10-14T06:35:48.308Z,100.93
2022-10-14T06:38:15.026Z,97.60
2022-10-14T06:40:41.586Z,112.47
2022-10-14T06:43:08.053Z,120.40
2022-10-14T06:45:34.506Z,116.27
2022-10-14T06:48:00.995Z,117.67
2022-10-14T06:50:27.415Z,144.03
2022-10-14T06:52:53.864Z,163.23
2022-10-14T06:55:20.298Z,141.57
2022-10-14T06:57:46.778Z,122.00
2022-10-14T07:00:13.728Z,121.63
2022-10-14T07:02:40.284Z,141.77
2022-10-14T07:05:06.906Z,117.67
2022-10-14T07:07:33.523Z,110.30
2022-10-14T07:10:00.081Z,116.97
2022-10-14T07:12:26.736Z,143.30
2022-10-14T07:14:53.288Z,173.27
2022-10-14T07:17:20.128Z,129.90
2022-10-14T07:19:46.915Z,107.93
2022-10-14T07:22:13.419Z,127.43
2022-10-14T07:24:39.854Z,100.37
2022-10-14T07:27:09.190Z,114.53
2022-10-14T07:29:35.699Z,86.97
2022-10-14T07:32:02.370Z,96.90
2022-10-14T07:34:29.010Z,83.97
2022-10-14T07:36:55.512Z,88.20
2022-10-14T07:39:21.948Z,82.47
2022-10-14T07:41:48.523Z,86.33
2022-10-14T07:44:16.781Z,75.60
2022-10-14T07:46:44.805Z,73.73
2022-10-14T07:49:14.897Z,79.63
2022-10-14T07:51:42.274Z,112.27
2022-10-14T07:54:13.392Z,68.73
2022-10-14T07:56:42.943Z,87.77
2022-10-14T07:59:09.956Z,101.57
2022-10-14T08:01:37.145Z,103.80
2022-10-14T08:04:04.077Z,73.23
2022-10-14T08:06:30.630Z,82.53
2022-10-14T08:08:57.170Z,69.70
2022-10-14T08:11:26.156Z,65.40
2022-10-14T08:13:53.209Z,105.40
2022-10-14T08:16:27.924Z,70.73
2022-10-14T08:18:59.479Z,66.67
2022-10-14T08:21:26.941Z,69.17
2022-10-14T08:23:54.933Z,87.77
2022-10-14T08:26:22.669Z,81.83
2022-10-14T08:28:50.308Z,68.23
2022-10-14T08:31:17.446Z,63.17
2022-10-14T08:33:44.044Z,77.63
2022-10-14T08:36:10.544Z,62.20
2022-10-14T08:38:37.031Z,62.10
2022-10-14T08:41:03.437Z,61.20
2022-10-14T08:43:36.892Z,73.47
2022-10-14T08:46:16.148Z,57.93
2022-10-14T08:48:42.966Z,59.37
2022-10-14T08:51:14.854Z,67.17
2022-10-14T08:53:46.606Z,61.03
2022-10-14T08:56:13.936Z,57.37
2022-10-14T08:58:49.832Z,60.73
2022-10-14T09:01:26.848Z,73.13
2022-10-14T09:04:00.167Z,67.27
2022-10-14T09:06:29.054Z,75.60
2022-10-14T09:09:06.441Z,76.03
2022-10-14T09:11:39.340Z,71.93
2022-10-14T09:14:07.866Z,72.90
2022-10-14T09:16:36.679Z,82.93
2022-10-14T09:19:05.813Z,68.53
2022-10-14T09:24:23.929Z,74.37
2022-10-14T09:27:23.566Z,71.27
2022-10-14T09:29:52.873Z,58.93
2022-10-14T09:32:29.767Z,58.23
2022-10-14T09:34:57.452Z,65.27
2022-10-14T09:37:35.242Z,66.70
2022-10-14T09:40:25.009Z,55.10
2022-10-14T09:43:09.697Z,92.67
2022-10-14T09:45:51.446Z,66.43
2022-10-14T09:48:38.108Z,61.43
2022-10-14T09:51:10.126Z,51.93
2022-10-14T09:53:41.135Z,53.03
2022-10-14T09:56:08.775Z,51.23
2022-10-14T09:58:53.531Z,60.00
2022-10-14T10:01:22.112Z,57.90
2022-10-14T10:03:50.318Z,56.10
2022-10-14T10:06:19.304Z,54.13
2022-10-14T10:09:04.045Z,61.53
2022-10-14T10:11:38.402Z,62.27
2022-10-14T10:14:23.724Z,60.43
2022-10-14T10:19:34.859Z,63.33
2022-10-14T10:25:01.151Z,56.57
2022-10-14T10:27:55.026Z,58.63
2022-10-14T10:30:21.432Z,57.63
2022-10-14T10:33:09.658Z,49.33
2022-10-14T10:35:54.077Z,46.13
2022-10-14T10:38:39.978Z,54.90
2022-10-14T10:41:15.623Z,48.73
2022-10-14T10:44:00.317Z,47.43
2022-10-14T10:47:05.783Z,45.73
2022-10-14T10:49:50.854Z,47.57
2022-10-14T10:52:35.499Z,49.83
2022-10-14T10:55:12.674Z,49.50
2022-10-14T10:57:53.046Z,45.90
2022-10-14T11:03:30.985Z,44.07
2022-10-14T11:06:03.432Z,44.53
2022-10-14T11:09:18.119Z,44.50
2022-10-14T11:12:15.659Z,47.57
2022-10-14T11:15:00.535Z,49.07
2022-10-14T11:18:05.376Z,47.53
2022-10-14T11:20:40.071Z,48.20
2022-10-14T11:23:57.088Z,45.50
2022-10-14T11:26:59.720Z,45.27
2022-10-14T11:29:35.533Z,42.67
2022-10-14T11:32:12.259Z,40.77
2022-10-14T11:35:01.421Z,40.97
2022-10-14T11:37:46.630Z,37.83
2022-10-14T11:40:26.170Z,40.67
2022-10-14T11:43:26.881Z,40.63
2022-10-14T11:45:57.698Z,37.67
2022-10-14T11:48:24.161Z,39.97
2022-10-14T11:50:56.376Z,40.13
2022-10-14T11:53:52.046Z,41.77
2022-10-14T11:56:37.249Z,42.93
2022-10-14T11:59:24.997Z,40.20
2022-10-14T12:01:55.883Z,38.50
2022-10-14T12:04:32.043Z,36.53
2022-10-14T12:07:10.986Z,34.00
2022-10-14T12:09:50.635Z,36.40
2022-10-14T12:12:20.284Z,35.27
2022-10-14T12:14:52.538Z,35.90
2022-10-14T12:17:23.634Z,35.07
2022-10-14T12:19:51.302Z,36.17
2022-10-14T12:22:26.104Z,36.07
2022-10-14T12:24:58.994Z,33.47
2022-10-14T12:27:27.256Z,35.70
2022-10-14T12:30:00.219Z,36.87
2022-10-14T12:32:28.047Z,34.40
2022-10-14T12:34:56.303Z,34.77
2022-10-14T12:37:42.846Z,32.27
2022-10-14T12:40:12.875Z,29.63
2022-10-14T12:42:42.478Z,30.17
2022-10-14T12:45:35.537Z,28.70
2022-10-14T12:48:08.078Z,28.63
2022-10-14T12:50:38.433Z,32.27
2022-10-14T12:53:17.425Z,30.30
2022-10-14T12:55:53.524Z,30.93
2022-10-14T12:58:24.250Z,29.73
2022-10-14T13:01:00.558Z,29.17
2022-10-14T13:03:32.040Z,29.07
2022-10-14T13:06:26.432Z,26.93
2022-10-14T13:09:11.410Z,26.77
2022-10-14T13:11:58.578Z,25.30
2022-10-14T13:14:31.144Z,27.13
2022-10-14T13:17:02.553Z,26.80
2022-10-14T13:19:35.140Z,32.00
2022-10-14T13:24:43.537Z,28.83
2022-10-14T13:27:30.081Z,27.50
2022-10-14T13:30:15.264Z,29.53
2022-10-14T13:32:50.426Z,28.10
2022-10-14T13:35:43.961Z,27.70
2022-10-14T13:38:15.626Z,27.77
2022-10-14T13:40:53.756Z,29.13
2022-10-14T13:43:26.701Z,26.63
2022-10-14T13:45:58.108Z,26.90
2022-10-14T13:48:31.880Z,26.07
2022-10-14T13:51:31.464Z,28.70
2022-10-14T13:54:09.719Z,27.93
2022-10-14T13:56:36.149Z,27.57
2022-10-14T13:59:05.436Z,26.97
2022-10-14T14:01:39.241Z,27.40
2022-10-14T14:04:06.048Z,28.40
2022-10-14T14:06:40.073Z,27.43
2022-10-14T14:09:22.543Z,26.33
2022-10-14T14:11:50.543Z,25.13
2022-10-14T14:14:26.804Z,25.83
2022-10-14T14:16:58.502Z,25.40
2022-10-14T14:19:34.242Z,25.60
2022-10-14T14:22:06.670Z,23.40
2022-10-14T14:24:34.286Z,23.77
2022-10-14T14:27:01.388Z,22.80
2022-10-14T14:29:31.305Z,24.33
2022-10-14T14:32:07.943Z,22.53
2022-10-14T14:34:36.437Z,23.07
2022-10-14T14:37:32.037Z,21.90
2022-10-14T14:39:57.678Z,25.73
2022-10-14T14:42:33.063Z,24.33
2022-10-14T14:45:04.917Z,23.77
2022-10-14T14:47:31.806Z,22.83
2022-10-14T14:50:18.299Z,26.47
2022-10-14T14:52:47.238Z,25.70
2022-10-14T14:55:33.379Z,25.43
2022-10-14T14:58:01.021Z,24.50
2022-10-14T15:00:27.477Z,25.50
2022-10-14T15:02:59.942Z,24.57
2022-10-14T15:05:27.021Z,24.50
2022-10-14T15:07:53.736Z,26.37
2022-10-14T15:10:27.575Z,26.47
2022-10-14T15:12:56.334Z,27.70
2022-10-14T15:15:30.802Z,26.93
2022-10-14T15:18:12.931Z,27.40
2022-10-14T15:20:39.987Z,40.50
2022-10-14T15:23:38.055Z,33.27
2022-10-14T15:26:20.124Z,28.73
2022-10-14T15:28:46.639Z,24.57
2022-10-14T15:31:16.569Z,25.10
2022-10-14T15:33:43.063Z,26.20
2022-10-14T15:36:10.753Z,25.20
2022-10-14T15:38:37.227Z,26.17
2022-10-14T15:41:05.333Z,26.07
2022-10-14T15:43:32.759Z,26.53
2022-10-14T15:46:18.455Z,26.47
2022-10-14T15:48:52.651Z,25.63
2022-10-14T15:51:20.332Z,25.67
2022-10-14T15:53:46.821Z,26.97
2022-10-14T15:56:13.264Z,26.87
2022-10-14T15:58:39.722Z,26.40
2022-10-14T16:01:06.620Z,27.40
2022-10-14T16:03:37.209Z,26.40
2022-10-14T16:06:05.422Z,28.40
2022-10-14T16:08:31.909Z,26.17
2022-10-14T16:10:59.168Z,29.63
2022-10-14T16:13:25.740Z,28.30
2022-10-14T16:15:54.848Z,27.60
2022-10-14T16:18:23.286Z,27.30
2022-10-14T16:20:49.807Z,28.57
2022-10-14T16:23:18.288Z,29.87
2022-10-14T16:25:46.644Z,30.97
2022-10-14T16:28:13.425Z,30.27
2022-10-14T16:30:44.955Z,30.67
2022-10-14T16:35:49.266Z,28.47
2022-10-14T16:38:15.746Z,27.97
2022-10-14T16:40:42.217Z,27.67
2022-10-14T16:43:09.511Z,27.40
2022-10-14T16:45:36.266Z,28.70
2022-10-14T16:48:02.994Z,31.77
2022-10-14T16:50:29.514Z,35.53
2022-10-14T16:53:34.406Z,36.10
2022-10-14T16:56:00.894Z,34.77
2022-10-14T16:58:28.112Z,34.10
2022-10-14T17:00:55.132Z,32.07
2022-10-14T17:03:21.575Z,31.43
2022-10-14T17:05:48.114Z,33.27
2022-10-14T17:08:14.631Z,31.47
2022-10-14T17:10:41.081Z,29.83
2022-10-14T17:13:08.227Z,27.07
2022-10-14T17:15:34.690Z,29.77
2022-10-14T17:18:01.232Z,28.57
2022-10-14T17:20:28.266Z,28.43
2022-10-14T17:22:55.166Z,31.83
2022-10-14T17:25:22.454Z,32.53
2022-10-14T17:27:49.422Z,35.63
2022-10-14T17:30:16.985Z,38.20
2022-10-14T17:32:43.870Z,31.47
2022-10-14T17:35:14.359Z,28.20
2022-10-14T17:37:42.482Z,26.30
2022-10-14T17:40:09.497Z,24.97
2022-10-14T17:42:35.982Z,23.70
2022-10-14T17:45:02.877Z,22.80
2022-10-14T17:47:29.637Z,23.60
2022-10-14T17:49:56.084Z,22.50
2022-10-14T17:52:22.548Z,22.87
2022-10-14T17:54:49.002Z,24.07
2022-10-14T17:57:15.435Z,24.37
2022-10-14T17:59:41.878Z,22.73
2022-10-14T18:02:14.994Z,22.70
2022-10-14T18:04:41.881Z,24.50
2022-10-14T18:07:09.048Z,21.87
2022-10-14T18:09:35.593Z,23.63
2022-10-14T18:12:10.208Z,23.40
2022-10-14T18:14:41.048Z,23.17
2022-10-14T18:17:10.817Z,24.53
2022-10-14T18:19:37.337Z,26.13
2022-10-14T18:22:03.960Z,24.53
2022-10-14T18:24:30.484Z,26.70
2022-10-14T18:26:57.782Z,24.80
2022-10-14T18:29:24.612Z,23.23
2022-10-14T18:34:18.648Z,23.60
2022-10-14T18:36:45.526Z,23.47
2022-10-14T18:39:15.545Z,22.47
2022-10-14T18:41:43.894Z,23.13
2022-10-14T18:44:10.436Z,21.87
2022-10-14T18:46:38.349Z,21.57
2022-10-14T18:49:06.466Z,20.73
2022-10-14T18:51:35.406Z,21.67
2022-10-14T18:54:05.334Z,23.30
2022-10-14T18:56:34.720Z,20.83
2022-10-14T19:01:36.511Z,21.60
2022-10-14T19:04:05.583Z,21.13
2022-10-14T19:06:32.928Z,22.53
2022-10-14T19:09:02.792Z,20.70
2022-10-14T19:11:30.369Z,22.37
2022-10-14T19:13:58.716Z,20.30
2022-10-14T19:16:27.394Z,20.20
2022-10-14T19:19:01.730Z,21.43
2022-10-14T19:21:30.549Z,20.53
2022-10-14T19:23:59.199Z,20.00
2022-10-14T19:26:28.670Z,20.47
2022-10-14T19:28:58.526Z,20.03
2022-10-14T19:31:29.717Z,19.43
2022-10-14T19:33:56.949Z,17.20
2022-10-14T19:36:25.566Z,19.47
2022-10-14T19:39:00.049Z,18.67
2022-10-14T19:41:28.529Z,18.90
2022-10-14T19:43:56.544Z,18.20
2022-10-14T19:46:26.596Z,18.20
2022-10-14T19:48:55.693Z,16.27
2022-10-14T19:51:22.244Z,16.17
2022-10-14T19:53:49.524Z,15.90
2022-10-14T19:56:16.006Z,14.90
2022-10-14T19:58:44.777Z,15.40
2022-10-14T20:01:16.927Z,15.33
2022-10-14T20:03:43.622Z,15.17
2022-10-14T20:06:11.918Z,17.00
2022-10-14T20:08:38.481Z,15.90
2022-10-14T20:11:09.847Z,16.70
2022-10-14T20:13:37.667Z,16.80
2022-10-14T20:16:05.932Z,17.10
2022-10-14T20:18:32.670Z,17.87
2022-10-14T20:21:00.849Z,17.03
2022-10-14T20:23:27.701Z,17.13
2022-10-14T20:26:05.974Z,20.27
2022-10-14T20:28:35.432Z,22.93
2022-10-14T20:31:02.088Z,23.93
2022-10-14T20:33:31.894Z,20.83
2022-10-14T20:36:05.874Z,27.57
2022-10-14T20:38:32.913Z,26.53
2022-10-14T20:41:07.584Z,29.43
2022-10-14T20:43:34.177Z,24.23
2022-10-14T20:46:00.898Z,22.97
2022-10-14T20:48:27.376Z,21.70
2022-10-14T20:50:53.792Z,24.57
2022-10-14T20:53:20.281Z,20.90
2022-10-14T20:55:46.742Z,20.23
2022-10-14T20:58:13.253Z,20.07
2022-10-14T21:00:39.744Z,22.27
2022-10-14T21:03:06.213Z,19.20
2022-10-14T21:05:36.871Z,20.90
2022-10-14T21:08:04.484Z,19.90
2022-10-14T21:10:31.006Z,19.60
2022-10-14T21:12:57.503Z,20.13
2022-10-14T21:15:26.868Z,19.33
2022-10-14T21:17:53.930Z,19.23
2022-10-14T21:20:20.536Z,24.70
2022-10-14T21:22:47.016Z,18.97
2022-10-14T21:25:14.227Z,25.23
2022-10-14T21:27:40.949Z,20.87
2022-10-14T21:30:08.011Z,25.37
2022-10-14T21:32:34.469Z,19.20
2022-10-14T21:35:00.933Z,19.00
2022-10-14T21:37:27.386Z,16.70
2022-10-14T21:39:53.937Z,17.47
2022-10-14T21:42:20.737Z,16.27
2022-10-14T21:44:47.391Z,16.60
2022-10-14T21:47:13.898Z,16.50
2022-10-14T21:49:42.650Z,20.03
2022-10-14T21:52:09.120Z,23.23
2022-10-14T21:54:35.570Z,18.10
2022-10-14T21:57:02.023Z,18.00
2022-10-14T21:59:28.591Z,20.50
2022-10-14T22:01:59.005Z,16.33
2022-10-14T22:04:35.936Z,19.43
2022-10-14T22:07:06.590Z,17.80
2022-10-14T22:09:33.054Z,18.20
2022-10-14T22:11:59.493Z,22.57
2022-10-14T22:14:25.961Z,25.43
2022-10-14T22:16:52.413Z,16.57
2022-10-14T22:19:18.918Z,25.23
2022-10-14T22:21:46.408Z,18.47
2022-10-14T22:24:12.987Z,18.90
2022-10-14T22:26:40.513Z,21.33
2022-10-14T22:29:10.685Z,21.37
2022-10-14T22:31:37.961Z,22.40
2022-10-14T22:34:06.328Z,21.50
2022-10-14T22:36:33.607Z,18.30
2022-10-14T22:39:05.845Z,21.27
2022-10-14T22:41:35.765Z,20.50
2022-10-14T22:44:04.548Z,18.50
2022-10-14T22:46:32.946Z,21.30
2022-10-14T22:49:00.851Z,22.03
2022-10-14T22:51:36.146Z,19.40
2022-10-14T22:54:03.164Z,23.13
2022-10-14T22:56:31.244Z,22.97
2022-10-14T22:59:05.611Z,23.53
2022-10-14T23:01:32.297Z,25.67
2022-10-14T23:03:59.664Z,23.43
2022-10-14T23:06:26.700Z,25.93
2022-10-14T23:08:54.372Z,27.77
2022-10-14T23:11:22.289Z,22.37
2022-10-14T23:13:49.106Z,22.20
2022-10-14T23:16:19.048Z,24.53
2022-10-14T23:18:46.148Z,26.27
2022-10-14T23:21:16.811Z,27.23
2022-10-14T23:23:43.828Z,29.37
2022-10-14T23:26:12.054Z,27.60
2022-10-14T23:28:39.390Z,22.67
2022-10-14T23:31:14.171Z,26.90
2022-10-14T23:33:41.084Z,24.13
2022-10-14T23:36:10.066Z,23.77
2022-10-14T23:38:36.933Z,24.40
2022-10-14T23:41:04.334Z,29.23
2022-10-14T23:43:31.150Z,25.33
2022-10-14T23:45:57.844Z,26.07
2022-10-14T23:48:24.977Z,24.30
2022-10-14T23:50:51.582Z,26.43
2022-10-14T23:53:18.531Z,29.80
2022-10-14T23:55:45.449Z,28.80
2022-10-14T23:58:12.676Z,29.93
